Карточка аэропорта UMKK

Внимание!
Информация на этой странице в стадии наполнения.
Если вы не увидели какой-то информации, или заметили неточность - пожалуйста сообщите нам!
Спасибо!
Команда RU-STAFF
Название аэропортаХраброво
Название аэропорта (англ.)Khrabrovo
Превышение43 ft. (13.1 m.)
Координаты54°53.4', 20°35.55'
Высота перехода4000ft
Эшелон переходаFL50 (QNH>=1013hPa); FL60 (QNH<1013hPa); FL50 (QNH<977hPa);
Коды ответчика6620-6637
Зона ОрВДКалининград РПИ (UMKK)
Данные METARUMKK 041900Z 10004MPS 4300 -RA BR BKN006 OVC017 01/00 Q1027 R06/290095 NOSIG RMK QBB180 OBST OBSC QFE769/1026
Проноз погоды (TAF)UMKK 041659Z 0418/0518 10005G10MPS 4900 BR BKN006 OVC016 TEMPO 0418/0424 2100 -DZRA BR OVC003 TEMPO 0500/0508 1000 FZDZ BR BKN002 OVC007 BECMG 0508/0510 6000 NSW BKN010
NOTAMshow/hide NOTAM
AWOS   TABLE

Информация о ВПП

ВПП Длина ВПП (м.) Покрытие Курс ВПП Частота ILS
063350Асфальтобетон60110.3
243350Асфальтобетон240109.5

Диспетчерские позиции

Позывной Наименование органа УВД Частота
UMKK_TWRКалининград-Вышка127.2
UMKK_APPКалининград-Подход126.0



Спутниковое изображение